首页
METAR-TAF:

METAR-TAF

机场 :

Tapachula, 墨西哥

纬度: 14-47N, 经度: 092-23W, 海拔: 29米

当前天气观测

该预报发布于1小时和15分钟前的15:40 UTC
风速2节,风向
温度 31°C
湿度 55%
气压 1014 hPa
能見度: 16.1公里
天空无云

METAR: MMTP 121540Z 35002KT 10SM SKC 31/21 A2995 RMK HZY BR

时间: 10:55 (16:55 UTC)

预报

该预报发布于5小时和47分钟前的11:08 UTC
预报有效从12日的 12点(UTC)到 13日的 18点(UTC)
风速节,风向
能見度: 10公里
散云层高于25000英尺
从 12日的 1800点(UTC)
风速10节,风向西南
能見度: 10公里
散云层高于3000英尺
多云层高于25000英尺
从 13日的 0600点(UTC)
风速节,风向
能見度: 10公里
散云层高于25000英尺
从 13日的 1700点(UTC)
风速10节,风向西南
能見度: 10公里
散云层高于3000英尺
散云层高于12000英尺
多云层高于25000英尺

TAF: MMTP 121108Z 1212/1318 00000KT P6SM SCT250 FM121800 23010KT P6SM SCT030 BKN250 FM130600 00000KT P6SM SCT250 FM131700 23010KT P6SM SCT030 SCT120 BKN250

超过4000个机场的气象观测和天气预报(METAR&TAF报告)。

可查询的气象台以黄色和红色小点在地图上表示。

将鼠标移到小点上方,可查看气象台名称。

然后点击查看天气观测和预报。

如需切换地图:点击带黑十字的绿色按钮放大地图;点击带横线的绿色按钮缩小地图;或者点击绿色箭头查看邻近地区的地图。


METAR-TAF: